Time;durP1;ratioP1;P1;durP2;ratioP2;P2;SDS_P1;SDS_P2;PMS_P1;PMS_P2;Temp;Humidity;BMP_temperature;BMP_pressure;BME280_temperature;BME280_humidity;BME280_pressure;Samples;Min_cycle;Max_cycle;Signal;HPM_P1;HPM_P2
2023/07/31 00:00:29;;;;;;;9.52;4.78;;;15.90;99.90;;;;;;5032771;28;20049;-24
2023/07/31 00:02:55;;;;;;;9.35;5.38;;;15.90;99.90;;;;;;5033726;28;20049;-24
2023/07/31 00:05:21;;;;;;;13.00;6.22;;;15.90;99.90;;;;;;5033029;28;20045;-24
2023/07/31 00:07:47;;;;;;;14.73;6.88;;;15.90;99.90;;;;;;5033720;28;20041;-23
2023/07/31 00:10:17;;;;;;;13.00;7.25;;;15.90;99.90;;;;;;5033713;28;20175;-23
2023/07/31 00:12:45;;;;;;;14.43;8.00;;;15.80;99.90;;;;;;5034220;28;20056;-23
2023/07/31 00:15:11;;;;;;;9.00;5.80;;;15.70;99.90;;;;;;5033581;28;20049;-22
2023/07/31 00:17:37;;;;;;;8.73;5.45;;;15.70;99.90;;;;;;5034123;28;20479;-23
2023/07/31 00:20:03;;;;;;;9.82;5.47;;;15.70;99.90;;;;;;5034140;28;20050;-23
2023/07/31 00:22:31;;;;;;;7.68;5.35;;;15.70;99.90;;;;;;5032403;28;20050;-22
2023/07/31 00:24:57;;;;;;;6.93;4.95;;;15.70;99.90;;;;;;5033554;28;20046;-22
2023/07/31 00:27:23;;;;;;;5.95;2.78;;;15.60;99.90;;;;;;5033571;28;20124;-22
2023/07/31 00:29:49;;;;;;;5.22;2.63;;;15.60;99.90;;;;;;5032291;28;20128;-22
2023/07/31 00:32:14;;;;;;;3.17;1.90;;;15.60;99.90;;;;;;5033726;28;20045;-22
2023/07/31 00:34:40;;;;;;;7.22;2.40;;;15.60;99.90;;;;;;5033458;28;20053;-23
2023/07/31 00:37:06;;;;;;;5.43;3.30;;;15.60;99.90;;;;;;5032221;28;20085;-23
2023/07/31 00:39:34;;;;;;;8.13;4.57;;;15.50;99.90;;;;;;5033698;28;20053;-23
2023/07/31 00:42:00;;;;;;;13.35;4.93;;;15.60;99.90;;;;;;5031969;28;20487;-24
2023/07/31 00:44:25;;;;;;;6.40;3.75;;;15.50;99.90;;;;;;5033383;28;20056;-24
2023/07/31 00:46:52;;;;;;;9.20;4.95;;;15.50;99.90;;;;;;5033288;28;20487;-25
2023/07/31 00:49:18;;;;;;;10.55;5.55;;;15.50;99.90;;;;;;5032801;28;20111;-25
2023/07/31 00:51:44;;;;;;;8.90;5.35;;;15.40;99.90;;;;;;5033266;28;20045;-25
2023/07/31 00:54:10;;;;;;;7.80;5.15;;;15.50;99.90;;;;;;5015883;28;20049;-25
2023/07/31 00:56:37;;;;;;;9.20;6.60;;;15.40;99.90;;;;;;5033774;28;20049;-25
2023/07/31 00:59:03;;;;;;;6.63;5.25;;;15.40;99.90;;;;;;5033103;28;20080;-24
2023/07/31 01:01:28;;;;;;;8.23;4.72;;;15.40;99.90;;;;;;5032022;28;20064;-25
2023/07/31 01:03:54;;;;;;;9.45;5.85;;;15.40;99.90;;;;;;5032316;28;20132;-25
2023/07/31 01:06:42;;;;;;;9.02;6.88;;;15.40;99.90;;;;;;5035333;28;20133;-25
2023/07/31 01:09:25;;;;;;;9.85;7.10;;;15.30;99.90;;;;;;5037374;28;20041;-24
2023/07/31 01:11:56;;;;;;;8.93;6.28;;;15.30;99.90;;;;;;5037387;28;20555;-25
2023/07/31 01:14:21;;;;;;;7.82;5.88;;;15.20;99.90;;;;;;5036136;28;20049;-24
2023/07/31 01:16:47;;;;;;;8.55;5.18;;;15.20;99.90;;;;;;5036602;28;20067;-25
2023/07/31 01:19:16;;;;;;;6.70;5.05;;;15.20;99.90;;;;;;5036628;28;20089;-25
2023/07/31 01:22:06;;;;;;;7.45;4.18;;;15.10;99.90;;;;;;5036544;28;20518;-25
2023/07/31 01:24:52;;;;;;;3.90;2.70;;;15.20;99.90;;;;;;5035687;28;20053;-25
2023/07/31 01:27:25;;;;;;;5.30;2.97;;;15.20;99.90;;;;;;5037198;28;20045;-25
2023/07/31 01:30:00;;;;;;;;;;;15.20;99.90;;;;;;5037113;28;20053;-25
2023/07/31 01:32:28;;;;;;;6.10;4.35;;;15.30;99.90;;;;;;5036392;28;20290;-25
2023/07/31 01:34:56;;;;;;;6.93;6.07;;;15.10;99.90;;;;;;5036021;28;20555;-25
2023/07/31 01:37:24;;;;;;;11.27;7.60;;;15.10;99.90;;;;;;5036244;28;20128;-25
2023/07/31 01:39:52;;;;;;;9.93;7.75;;;15.20;99.90;;;;;;5036821;28;20125;-25
2023/07/31 01:42:17;;;;;;;7.30;5.93;;;15.20;99.90;;;;;;5036439;28;20056;-25
2023/07/31 01:44:43;;;;;;;7.07;6.38;;;15.10;99.90;;;;;;5036208;28;20404;-25
2023/07/31 01:47:09;;;;;;;9.30;7.25;;;15.10;99.90;;;;;;5037206;28;20124;-25
2023/07/31 01:49:34;;;;;;;9.50;6.35;;;15.10;99.90;;;;;;5034967;28;20053;-26
2023/07/31 01:52:00;;;;;;;8.60;6.50;;;15.20;99.90;;;;;;5036592;28;20049;-26
2023/07/31 01:54:26;;;;;;;6.88;5.65;;;15.20;99.90;;;;;;5035714;28;20114;-26
2023/07/31 01:56:52;;;;;;;7.00;6.30;;;15.20;99.90;;;;;;5035871;28;20188;-26
2023/07/31 01:59:17;;;;;;;9.40;8.20;;;15.10;99.90;;;;;;5035885;28;20045;-27
2023/07/31 02:01:43;;;;;;;10.88;7.22;;;15.10;99.90;;;;;;5035882;28;20045;-27
2023/07/31 02:04:08;;;;;;;11.15;7.97;;;15.00;99.90;;;;;;5036126;28;20386;-27
2023/07/31 02:06:34;;;;;;;8.88;7.10;;;15.10;99.90;;;;;;5035417;28;20049;-28
2023/07/31 02:09:00;;;;;;;9.10;7.53;;;15.00;99.90;;;;;;5035766;28;20047;-27
2023/07/31 02:11:26;;;;;;;11.13;6.88;;;15.10;99.90;;;;;;5035114;28;20095;-28
2023/07/31 02:13:51;;;;;;;8.15;7.03;;;15.10;99.90;;;;;;5035712;28;20085;-28
2023/07/31 02:16:17;;;;;;;12.50;6.53;;;15.00;99.90;;;;;;5034433;28;20457;-30
2023/07/31 02:18:42;;;;;;;6.95;5.63;;;15.20;99.90;;;;;;5035486;28;20041;-29
2023/07/31 02:21:08;;;;;;;8.45;5.75;;;15.10;99.90;;;;;;5036068;28;20041;-28
2023/07/31 02:23:34;;;;;;;9.45;5.70;;;15.10;99.90;;;;;;5034261;28;20041;-29
2023/07/31 02:26:00;;;;;;;9.82;5.88;;;15.10;99.90;;;;;;5035425;28;20056;-29
2023/07/31 02:28:25;;;;;;;7.50;5.90;;;15.10;99.90;;;;;;5035425;28;20091;-30
2023/07/31 02:30:52;;;;;;;8.23;5.65;;;15.10;99.90;;;;;;5035334;28;20085;-29
2023/07/31 02:33:18;;;;;;;6.85;5.57;;;15.10;99.90;;;;;;5035826;28;20108;-31
2023/07/31 02:35:43;;;;;;;11.77;6.20;;;15.10;99.90;;;;;;5034122;28;20049;-31
2023/07/31 02:38:09;;;;;;;10.20;6.50;;;15.10;99.90;;;;;;5035113;28;20045;-32
2023/07/31 02:40:35;;;;;;;10.52;6.25;;;15.10;99.90;;;;;;5035168;28;20050;-32
2023/07/31 02:43:00;;;;;;;8.93;5.90;;;15.00;99.90;;;;;;5033839;28;20147;-32
2023/07/31 02:45:26;;;;;;;12.98;6.50;;;15.00;99.90;;;;;;5035281;28;20126;-33
2023/07/31 02:47:51;;;;;;;10.20;6.60;;;14.90;99.90;;;;;;5035262;28;20053;-33
2023/07/31 02:50:17;;;;;;;10.77;6.38;;;15.10;99.90;;;;;;5035259;28;20244;-38
2023/07/31 02:52:43;;;;;;;9.52;6.20;;;15.10;99.90;;;;;;5033723;28;20048;-38
2023/07/31 02:55:09;;;;;;;9.80;6.25;;;15.00;99.90;;;;;;5034873;28;20132;-41
2023/07/31 02:57:34;;;;;;;9.40;6.78;;;15.00;99.90;;;;;;5034738;28;20049;-40
2023/07/31 03:00:00;;;;;;;9.20;6.35;;;15.00;99.90;;;;;;5034753;28;20088;-40
2023/07/31 03:02:26;;;;;;;13.48;6.35;;;15.00;99.90;;;;;;5034735;28;20053;-42
2023/07/31 03:04:52;;;;;;;10.68;6.38;;;14.90;99.90;;;;;;5034900;28;20133;-42
2023/07/31 03:07:17;;;;;;;13.75;6.95;;;14.90;99.90;;;;;;5033676;28;20135;-43
2023/07/31 03:09:43;;;;;;;12.77;6.03;;;15.00;99.90;;;;;;5034569;28;20139;-42
2023/07/31 03:12:09;;;;;;;8.93;6.07;;;15.00;99.90;;;;;;5034486;28;20041;-43
2023/07/31 03:14:34;;;;;;;11.20;5.45;;;15.00;99.90;;;;;;5034487;28;20045;-43
2023/07/31 03:17:00;;;;;;;9.45;5.53;;;15.10;99.90;;;;;;5034036;28;20049;-43
2023/07/31 03:19:26;;;;;;;7.57;4.45;;;14.90;99.90;;;;;;5032899;28;20171;-43
2023/07/31 03:21:51;;;;;;;11.07;6.13;;;15.00;99.90;;;;;;5034418;28;20132;-43
2023/07/31 03:24:17;;;;;;;9.32;4.82;;;14.90;99.90;;;;;;5034300;28;20128;-44
2023/07/31 03:26:43;;;;;;;10.45;6.00;;;15.00;99.90;;;;;;5034262;28;20054;-43
2023/07/31 03:29:09;;;;;;;10.15;5.50;;;14.90;99.90;;;;;;5034169;28;20487;-43
2023/07/31 03:31:34;;;;;;;8.48;5.18;;;15.10;99.90;;;;;;5034805;28;20391;-42
2023/07/31 03:34:00;;;;;;;8.20;4.53;;;15.10;99.90;;;;;;5034665;28;20080;-42
2023/07/31 03:36:26;;;;;;;10.05;5.72;;;15.00;99.90;;;;;;5034370;28;20059;-41
2023/07/31 03:38:52;;;;;;;11.43;5.80;;;15.10;99.90;;;;;;5034003;28;20060;-42
2023/07/31 03:41:18;;;;;;;11.30;5.90;;;15.10;99.90;;;;;;5034017;28;20132;-41
2023/07/31 03:43:43;;;;;;;14.18;5.13;;;14.90;99.90;;;;;;5034004;28;20133;-39
2023/07/31 03:46:09;;;;;;;9.27;5.18;;;14.90;99.90;;;;;;5032797;28;20049;-40
2023/07/31 03:48:35;;;;;;;11.82;5.00;;;15.00;99.90;;;;;;5033764;28;20054;-39
2023/07/31 03:51:00;;;;;;;9.30;4.55;;;14.90;99.90;;;;;;5034195;28;20053;-31
2023/07/31 03:53:26;;;;;;;9.30;5.40;;;15.10;99.90;;;;;;5016515;28;20529;-31
2023/07/31 03:55:52;;;;;;;12.05;5.05;;;14.90;99.90;;;;;;5033825;28;20058;-31
2023/07/31 03:58:17;;;;;;;10.13;4.55;;;15.10;99.90;;;;;;5032579;28;20537;-31
2023/07/31 04:00:43;;;;;;;10.70;4.22;;;14.90;99.90;;;;;;5034598;28;20041;-31
2023/07/31 04:03:09;;;;;;;10.88;3.95;;;15.00;99.90;;;;;;5032569;28;20470;-31
2023/07/31 04:05:38;;;;;;;10.50;3.97;;;14.90;99.90;;;;;;5032557;28;20053;-31
2023/07/31 04:08:04;;;;;;;12.30;4.30;;;15.00;99.90;;;;;;5032729;28;20049;-31
2023/07/31 04:10:31;;;;;;;9.23;4.00;;;14.90;99.90;;;;;;5033943;28;20510;-30
2023/07/31 04:12:57;;;;;;;9.25;4.47;;;15.00;99.90;;;;;;5033665;28;20049;-32
2023/07/31 04:15:22;;;;;;;9.35;3.92;;;15.00;99.90;;;;;;5032693;28;20037;-29
2023/07/31 04:17:48;;;;;;;5.55;3.85;;;15.00;99.90;;;;;;5032496;28;20054;-29
2023/07/31 04:20:14;;;;;;;6.95;3.50;;;15.00;99.90;;;;;;5034152;28;20045;-29
2023/07/31 04:22:39;;;;;;;7.97;3.83;;;14.90;99.90;;;;;;5016178;28;20072;-29
2023/07/31 04:25:05;;;;;;;8.10;4.00;;;15.10;99.90;;;;;;5032374;28;20045;-29
2023/07/31 04:27:31;;;;;;;7.32;3.85;;;14.90;99.90;;;;;;5033473;28;20038;-29
2023/07/31 04:29:57;;;;;;;11.15;4.00;;;15.10;99.90;;;;;;5033439;28;20048;-28
2023/07/31 04:32:22;;;;;;;6.03;3.40;;;14.90;99.90;;;;;;5033440;28;20096;-29
2023/07/31 04:34:48;;;;;;;7.25;3.72;;;14.90;99.90;;;;;;5016104;28;20052;-29
2023/07/31 04:37:14;;;;;;;6.63;3.58;;;15.10;99.90;;;;;;5032164;28;20488;-28
2023/07/31 04:39:40;;;;;;;5.93;3.83;;;15.00;99.90;;;;;;5034232;28;20045;-29
2023/07/31 04:42:05;;;;;;;6.15;3.63;;;15.10;99.90;;;;;;5036654;28;20042;-28
2023/07/31 04:44:31;;;;;;;6.18;3.50;;;15.10;99.90;;;;;;5037363;28;20050;-28
2023/07/31 04:46:57;;;;;;;5.90;3.47;;;15.10;99.90;;;;;;5037832;28;20053;-27
2023/07/31 04:49:22;;;;;;;6.22;2.97;;;14.90;99.90;;;;;;5037356;28;20092;-29
2023/07/31 04:51:48;;;;;;;8.27;2.67;;;14.90;99.90;;;;;;5037181;28;20507;-28
2023/07/31 04:54:14;;;;;;;4.13;2.10;;;14.90;99.90;;;;;;5035594;28;20072;-28
2023/07/31 04:56:41;;;;;;;3.80;1.70;;;14.90;99.90;;;;;;5035822;28;20050;-27
2023/07/31 04:59:07;;;;;;;4.63;2.25;;;15.00;99.90;;;;;;5035809;28;20045;-26
2023/07/31 05:01:32;;;;;;;3.85;2.80;;;15.00;99.90;;;;;;5035821;28;20128;-26
2023/07/31 05:03:58;;;;;;;6.80;2.72;;;14.90;99.90;;;;;;5036910;28;20052;-25
2023/07/31 05:06:24;;;;;;;6.13;2.80;;;15.10;99.90;;;;;;5036862;28;20144;-26
2023/07/31 05:08:49;;;;;;;8.02;3.42;;;15.00;99.90;;;;;;5037706;28;20048;-25
2023/07/31 05:11:15;;;;;;;4.55;3.17;;;14.90;99.90;;;;;;5036856;28;20051;-24
2023/07/31 05:13:41;;;;;;;5.57;3.15;;;14.90;99.90;;;;;;5035775;28;20045;-25
2023/07/31 05:16:06;;;;;;;6.13;3.30;;;14.90;99.90;;;;;;5037290;28;20104;-25
2023/07/31 05:18:32;;;;;;;2.92;2.42;;;15.00;99.90;;;;;;5036608;28;20044;-25
2023/07/31 05:20:58;;;;;;;4.80;2.00;;;15.20;99.90;;;;;;5036660;28;20053;-24
2023/07/31 05:23:23;;;;;;;1.77;1.38;;;15.00;99.90;;;;;;5035428;28;20400;-24
2023/07/31 05:25:49;;;;;;;3.83;1.23;;;15.00;99.90;;;;;;5036579;28;20107;-24
2023/07/31 05:28:15;;;;;;;2.15;1.10;;;15.20;99.90;;;;;;5036503;28;20048;-24
2023/07/31 05:30:41;;;;;;;3.83;1.30;;;15.20;99.90;;;;;;5035326;28;20075;-24
2023/07/31 05:33:06;;;;;;;4.22;1.63;;;15.10;99.90;;;;;;5036715;28;20045;-24
2023/07/31 05:35:32;;;;;;;2.03;1.27;;;15.10;99.90;;;;;;5036400;28;20502;-23
2023/07/31 05:37:58;;;;;;;2.90;1.10;;;15.30;99.90;;;;;;5036499;28;20112;-22
2023/07/31 05:40:23;;;;;;;2.20;1.17;;;15.20;99.90;;;;;;5036316;28;20041;-23
2023/07/31 05:42:49;;;;;;;2.97;1.60;;;15.40;99.90;;;;;;5037108;28;20049;-22
2023/07/31 05:45:15;;;;;;;4.53;1.88;;;15.40;99.90;;;;;;5036786;28;20441;-22
2023/07/31 05:47:40;;;;;;;2.85;1.45;;;15.30;99.90;;;;;;5036222;28;20038;-22
2023/07/31 05:50:06;;;;;;;2.70;1.50;;;15.40;99.90;;;;;;5036118;28;20075;-22
2023/07/31 05:52:32;;;;;;;3.35;1.40;;;15.20;99.90;;;;;;5034705;28;20084;-22
2023/07/31 05:54:58;;;;;;;3.35;1.50;;;15.40;99.90;;;;;;5036320;28;20052;-22
2023/07/31 05:57:23;;;;;;;4.43;1.90;;;15.50;99.90;;;;;;5018533;28;20454;-22
2023/07/31 05:59:49;;;;;;;2.60;1.40;;;15.30;99.90;;;;;;5034784;28;20042;-22
2023/07/31 06:02:15;;;;;;;2.22;1.60;;;15.60;99.90;;;;;;5036677;28;20050;-22
2023/07/31 06:04:40;;;;;;;6.13;2.10;;;15.40;99.90;;;;;;5035869;28;20075;-21
2023/07/31 06:07:06;;;;;;;4.57;1.88;;;15.50;99.90;;;;;;5035438;28;20137;-21
2023/07/31 06:09:32;;;;;;;3.78;1.95;;;15.70;99.90;;;;;;5036308;28;20365;-21
2023/07/31 06:11:58;;;;;;;4.63;2.45;;;15.60;99.90;;;;;;5036254;28;20124;-22
2023/07/31 06:14:24;;;;;;;5.45;2.35;;;15.50;99.90;;;;;;5036221;28;20045;-22
2023/07/31 06:16:49;;;;;;;5.88;2.58;;;15.60;99.90;;;;;;5035926;28;20128;-21
2023/07/31 06:19:15;;;;;;;7.15;3.03;;;15.70;99.90;;;;;;5033989;28;20045;-21
2023/07/31 06:21:43;;;;;;;7.68;2.80;;;15.70;99.90;;;;;;5035542;28;20171;-21
2023/07/31 06:24:09;;;;;;;6.03;3.00;;;15.70;99.90;;;;;;5035518;28;20058;-21
2023/07/31 06:26:34;;;;;;;7.25;3.40;;;15.80;99.90;;;;;;5035406;28;20132;-20
2023/07/31 06:29:00;;;;;;;7.03;3.70;;;15.60;99.90;;;;;;5034363;28;20091;-20
2023/07/31 06:31:26;;;;;;;8.93;3.50;;;15.80;99.90;;;;;;5017944;28;20049;-20
2023/07/31 06:33:52;;;;;;;10.38;3.67;;;15.80;99.90;;;;;;5035265;28;20045;-21
2023/07/31 06:36:18;;;;;;;12.07;4.57;;;15.80;99.90;;;;;;5034327;28;20054;-21
2023/07/31 06:38:44;;;;;;;11.10;4.13;;;15.90;99.90;;;;;;5035932;28;20072;-21
2023/07/31 06:41:10;;;;;;;15.18;5.00;;;15.90;99.90;;;;;;5034229;28;20476;-21
2023/07/31 06:43:36;;;;;;;19.58;6.13;;;15.70;99.90;;;;;;5035114;28;20041;-21
2023/07/31 06:46:09;;;;;;;17.35;6.10;;;15.80;99.90;;;;;;5035837;28;20049;-21
2023/07/31 06:48:36;;;;;;;;;;;16.00;99.90;;;;;;5035218;28;20045;-21
2023/07/31 06:51:02;;;;;;;20.38;7.28;;;16.10;99.90;;;;;;5035213;28;20334;-21
2023/07/31 06:53:28;;;;;;;29.52;8.48;;;16.20;99.90;;;;;;5033992;28;20052;-21
2023/07/31 06:55:54;;;;;;;25.45;7.88;;;16.30;99.90;;;;;;5033752;28;20092;-21
2023/07/31 06:58:20;;;;;;;27.27;7.15;;;16.40;99.90;;;;;;5034733;28;20395;-21
2023/07/31 07:00:46;;;;;;;26.17;8.05;;;16.30;99.90;;;;;;5034781;28;20037;-21
2023/07/31 07:03:14;;;;;;;27.95;8.25;;;16.40;99.90;;;;;;5035000;28;20064;-21
2023/07/31 07:05:40;;;;;;;27.83;9.25;;;16.30;99.90;;;;;;5034037;28;20199;-21
2023/07/31 07:08:06;;;;;;;25.88;8.70;;;16.60;99.90;;;;;;5034680;28;20527;-21
2023/07/31 07:10:31;;;;;;;24.15;7.25;;;16.50;99.90;;;;;;5034593;28;20045;-22
2023/07/31 07:12:57;;;;;;;20.90;8.10;;;16.60;99.90;;;;;;5034823;28;20184;-21
2023/07/31 07:15:23;;;;;;;29.10;8.95;;;16.50;99.90;;;;;;5034472;28;20392;-22
2023/07/31 07:17:49;;;;;;;27.35;6.97;;;16.40;99.90;;;;;;5033345;28;20045;-22
2023/07/31 07:20:14;;;;;;;21.20;6.28;;;16.60;99.90;;;;;;5033231;28;20539;-21
2023/07/31 07:22:42;;;;;;;19.80;5.22;;;16.40;99.90;;;;;;5033201;28;20492;-22
2023/07/31 07:25:08;;;;;;;15.77;6.13;;;16.40;99.90;;;;;;5033364;28;20103;-22
2023/07/31 07:27:34;;;;;;;17.48;4.93;;;16.40;99.90;;;;;;5034260;28;20049;-21
2023/07/31 07:30:00;;;;;;;12.70;4.80;;;16.40;99.90;;;;;;5034187;28;20133;-21
2023/07/31 07:32:26;;;;;;;16.50;5.10;;;16.20;99.90;;;;;;5034760;28;20067;-21
2023/07/31 07:34:52;;;;;;;22.67;6.05;;;16.50;99.90;;;;;;5034219;28;20045;-21
2023/07/31 07:37:18;;;;;;;12.55;4.45;;;16.50;99.90;;;;;;5034110;28;20095;-22
2023/07/31 07:39:44;;;;;;;14.88;4.93;;;16.70;99.90;;;;;;5033963;28;20051;-21
2023/07/31 07:42:10;;;;;;;14.20;4.35;;;16.50;99.90;;;;;;5034075;28;20449;-22
2023/07/31 07:44:35;;;;;;;16.35;6.25;;;16.50;99.90;;;;;;5033072;28;20045;-21
2023/07/31 07:47:01;;;;;;;12.43;4.63;;;16.60;99.90;;;;;;5034034;28;20045;-21
2023/07/31 07:49:27;;;;;;;12.05;4.07;;;16.70;99.90;;;;;;5033936;28;20110;-21
2023/07/31 07:51:53;;;;;;;15.90;6.40;;;16.70;99.90;;;;;;5034542;28;20103;-21
2023/07/31 07:54:20;;;;;;;14.20;5.32;;;16.60;99.90;;;;;;5033866;28;20049;-21
2023/07/31 07:56:45;;;;;;;8.63;3.85;;;16.70;99.90;;;;;;5034388;28;20128;-21
2023/07/31 07:59:11;;;;;;;11.90;4.65;;;16.80;99.90;;;;;;5033728;28;20171;-21
2023/07/31 08:01:37;;;;;;;8.18;3.70;;;16.80;99.90;;;;;;5032662;28;20053;-21
2023/07/31 08:04:03;;;;;;;8.00;3.75;;;16.90;99.90;;;;;;5033177;28;20045;-21
2023/07/31 08:06:29;;;;;;;7.90;3.58;;;16.90;99.90;;;;;;5033757;28;20042;-21
2023/07/31 08:08:55;;;;;;;7.13;2.95;;;16.90;99.90;;;;;;5033379;28;20391;-20
2023/07/31 08:11:23;;;;;;;3.53;1.60;;;17.10;99.90;;;;;;5034266;28;20046;-20
2023/07/31 08:13:49;;;;;;;2.10;1.00;;;16.70;99.90;;;;;;5034208;28;20054;-20
2023/07/31 08:16:15;;;;;;;1.55;0.70;;;17.00;99.90;;;;;;5032938;28;20042;-20
2023/07/31 08:18:42;;;;;;;2.40;0.70;;;16.90;99.90;;;;;;5033585;28;20048;-20
2023/07/31 08:21:08;;;;;;;2.70;0.77;;;16.80;99.90;;;;;;5034176;28;20128;-20
2023/07/31 08:23:34;;;;;;;2.20;0.90;;;16.70;99.90;;;;;;5032890;28;20084;-21
2023/07/31 08:25:59;;;;;;;0.93;0.60;;;16.80;99.90;;;;;;5033573;28;20069;-20
2023/07/31 08:28:25;;;;;;;1.48;0.60;;;16.80;99.90;;;;;;5034046;28;20064;-20
2023/07/31 08:30:51;;;;;;;0.93;0.47;;;17.00;99.90;;;;;;5033425;28;20129;-20
2023/07/31 08:33:16;;;;;;;1.92;0.50;;;16.90;99.90;;;;;;5032779;28;20168;-20
2023/07/31 08:35:42;;;;;;;1.50;0.70;;;17.00;99.90;;;;;;5033163;28;20068;-20
2023/07/31 08:38:08;;;;;;;1.02;0.50;;;17.00;99.90;;;;;;5033403;28;20087;-21
2023/07/31 08:40:38;;;;;;;0.95;0.30;;;17.00;99.90;;;;;;5033423;28;20045;-21
2023/07/31 08:43:04;;;;;;;0.90;0.40;;;17.20;99.90;;;;;;5033439;28;20049;-21
2023/07/31 08:45:30;;;;;;;0.68;0.35;;;17.10;99.90;;;;;;5032951;28;20379;-21
2023/07/31 08:47:59;;;;;;;4.30;0.50;;;17.10;99.90;;;;;;5033313;28;20128;-21
2023/07/31 08:50:25;;;;;;;1.10;0.47;;;17.10;99.90;;;;;;5033446;28;20053;-21
2023/07/31 08:52:52;;;;;;;0.95;0.38;;;17.00;99.90;;;;;;5033829;28;20046;-21
2023/07/31 08:55:24;;;;;;;0.60;0.30;;;17.20;99.90;;;;;;5033275;28;20055;-21
2023/07/31 08:57:55;;;;;;;1.48;0.30;;;17.20;99.90;;;;;;5033880;28;20079;-21
2023/07/31 09:00:23;;;;;;;1.98;0.20;;;17.20;99.90;;;;;;5033295;28;20049;-21
2023/07/31 09:03:02;;;;;;;0.25;0.10;;;17.00;99.90;;;;;;5033183;28;20487;-21
2023/07/31 09:05:29;;;;;;;0.47;0.20;;;17.20;99.90;;;;;;5033310;28;20049;-21
2023/07/31 09:07:56;;;;;;;0.25;0.10;;;17.20;99.90;;;;;;5032870;28;20050;-21
2023/07/31 09:10:22;;;;;;;1.38;0.30;;;17.10;99.90;;;;;;5032198;28;20050;-21
2023/07/31 09:12:53;;;;;;;0.10;0.10;;;17.10;99.90;;;;;;5033104;28;20483;-21
2023/07/31 09:15:19;;;;;;;0.52;0.22;;;17.10;99.90;;;;;;5032477;28;20092;-21
2023/07/31 09:17:45;;;;;;;0.13;0.00;;;16.90;99.90;;;;;;5031845;28;20045;-21
2023/07/31 09:20:16;;;;;;;2.30;0.32;;;17.10;99.90;;;;;;5032375;28;20183;-21
2023/07/31 09:22:43;;;;;;;0.30;0.15;;;17.00;99.90;;;;;;5032077;28;20066;-21
2023/07/31 09:25:16;;;;;;;0.28;0.10;;;17.00;99.90;;;;;;5032069;28;20157;-21
2023/07/31 09:27:57;;;;;;;0.50;0.15;;;17.30;99.90;;;;;;5036195;28;20056;-21
2023/07/31 09:30:23;;;;;;;0.47;0.20;;;17.40;99.90;;;;;;5036435;28;20045;-21
2023/07/31 09:32:50;;;;;;;0.75;0.50;;;17.50;99.90;;;;;;5036176;28;20625;-21
2023/07/31 09:35:22;;;;;;;1.00;0.20;;;17.50;99.90;;;;;;5037204;28;20049;-21
2023/07/31 09:38:19;;;;;;;0.10;0.10;;;17.60;99.90;;;;;;5035070;28;20117;-21
2023/07/31 09:40:47;;;;;;;0.57;0.20;;;17.70;99.90;;;;;;5035502;28;20064;-21
2023/07/31 09:43:18;;;;;;;1.17;0.20;;;17.80;99.90;;;;;;5036261;28;20049;-21
2023/07/31 09:45:45;;;;;;;1.02;0.30;;;18.00;99.90;;;;;;5036818;28;20081;-21
2023/07/31 09:48:16;;;;;;;0.20;0.10;;;17.90;99.90;;;;;;5036745;28;20049;-21
2023/07/31 09:50:46;;;;;;;0.57;0.10;;;17.80;99.90;;;;;;5035524;28;20142;-21
2023/07/31 09:53:12;;;;;;;0.10;0.00;;;17.90;99.90;;;;;;5035243;28;20130;-21
2023/07/31 09:55:39;;;;;;;1.15;0.35;;;17.90;99.90;;;;;;5036059;28;20471;-21
2023/07/31 09:58:11;;;;;;;2.35;0.40;;;18.00;99.90;;;;;;5035924;28;20390;-21
2023/07/31 10:00:37;;;;;;;1.17;0.35;;;17.90;99.90;;;;;;5035016;28;20111;-21
2023/07/31 10:03:08;;;;;;;3.75;0.70;;;17.90;99.90;;;;;;5036207;28;20053;-21
2023/07/31 10:05:56;;;;;;;1.42;0.20;;;18.00;99.90;;;;;;5035874;28;20507;-20
2023/07/31 10:08:29;;;;;;;1.90;0.32;;;17.80;99.90;;;;;;5035967;28;20377;-21
2023/07/31 10:10:58;;;;;;;0.40;0.20;;;17.70;99.90;;;;;;5036092;28;20053;-20
2023/07/31 10:13:24;;;;;;;2.25;1.08;;;17.40;99.90;;;;;;5035374;28;20499;-20
2023/07/31 10:15:51;;;;;;;3.97;1.17;;;17.40;99.90;;;;;;5035952;28;20068;-20
2023/07/31 10:18:18;;;;;;;3.30;1.27;;;17.10;99.90;;;;;;5035839;28;20077;-19
2023/07/31 10:20:45;;;;;;;3.03;1.40;;;17.20;99.90;;;;;;5035419;28;20076;-20
2023/07/31 10:23:11;;;;;;;3.58;0.57;;;17.50;99.90;;;;;;5036100;28;20057;-20
2023/07/31 10:25:38;;;;;;;2.67;0.80;;;17.40;99.90;;;;;;5035797;28;20072;-21
2023/07/31 10:28:04;;;;;;;1.38;0.65;;;17.50;99.90;;;;;;5035486;28;20403;-21
2023/07/31 10:30:33;;;;;;;4.13;0.60;;;17.60;99.90;;;;;;5017594;28;20045;-21
2023/07/31 10:33:00;;;;;;;2.58;0.73;;;17.50;99.90;;;;;;5035221;28;20049;-21
2023/07/31 10:35:27;;;;;;;0.93;0.40;;;17.70;99.90;;;;;;5035312;28;20483;-21
2023/07/31 10:37:52;;;;;;;1.33;0.30;;;17.60;99.90;;;;;;5035047;28;20049;-21
2023/07/31 10:40:23;;;;;;;0.88;0.47;;;17.90;99.90;;;;;;5035545;28;20045;-21
2023/07/31 10:42:52;;;;;;;1.67;0.55;;;17.80;99.90;;;;;;5034242;28;20052;-22
2023/07/31 10:45:33;;;;;;;1.17;0.30;;;18.10;99.90;;;;;;5033843;28;20073;-22
2023/07/31 10:48:00;;;;;;;2.38;0.50;;;18.20;99.90;;;;;;5035089;28;20042;-22
2023/07/31 10:50:26;;;;;;;0.73;0.28;;;18.50;99.90;;;;;;5034920;28;20096;-22
2023/07/31 10:52:54;;;;;;;0.43;0.30;;;18.60;99.90;;;;;;5034536;28;20132;-22
2023/07/31 10:55:39;;;;;;;0.68;0.30;;;18.70;99.90;;;;;;5033447;28;20507;-22
2023/07/31 10:58:10;;;;;;;2.28;0.20;;;18.70;99.90;;;;;;5034814;28;20049;-23
2023/07/31 11:00:41;;;;;;;0.10;0.05;;;18.50;99.90;;;;;;5034856;28;20052;-22
2023/07/31 11:03:14;;;;;;;1.30;0.20;;;18.60;99.90;;;;;;5034811;28;20424;-22
2023/07/31 11:06:09;;;;;;;0.10;0.10;;;18.30;99.90;;;;;;5034725;28;20057;-22
2023/07/31 11:08:41;;;;;;;1.65;0.30;;;18.20;99.90;;;;;;5031743;28;20045;-22
2023/07/31 11:11:09;;;;;;;1.45;0.20;;;18.30;99.90;;;;;;5034299;28;20042;-22
2023/07/31 11:13:47;;;;;;;2.03;0.20;;;18.10;99.90;;;;;;5034289;28;20559;-22
2023/07/31 11:16:13;;;;;;;1.65;0.30;;;18.10;99.90;;;;;;5034614;28;20068;-22
2023/07/31 11:18:48;;;;;;;0.43;0.17;;;18.20;99.90;;;;;;5034431;28;20057;-21
2023/07/31 11:21:19;;;;;;;1.17;0.68;;;18.20;99.90;;;;;;5035605;28;20134;-21
2023/07/31 11:23:57;;;;;;;1.25;0.35;;;18.10;99.90;;;;;;5034456;28;20049;-21
2023/07/31 11:26:24;;;;;;;0.70;0.30;;;18.10;99.90;;;;;;5034348;28;20057;-21
2023/07/31 11:28:50;;;;;;;0.95;0.52;;;18.20;99.90;;;;;;5035133;28;20037;-22
2023/07/31 11:31:17;;;;;;;2.03;0.57;;;18.10;99.90;;;;;;5032901;28;20053;-21
2023/07/31 11:33:43;;;;;;;1.33;0.57;;;18.10;99.90;;;;;;5016568;28;20518;-21
2023/07/31 11:36:19;;;;;;;1.92;0.70;;;18.20;99.90;;;;;;5034182;28;20049;-22
2023/07/31 11:38:45;;;;;;;1.40;0.90;;;18.40;99.90;;;;;;5034929;28;20046;-22
2023/07/31 11:41:14;;;;;;;4.05;1.02;;;18.60;99.90;;;;;;5033976;28;20395;-22
2023/07/31 11:43:40;;;;;;;3.83;1.38;;;18.60;99.90;;;;;;5034100;28;20053;-23
2023/07/31 11:46:06;;;;;;;2.65;1.05;;;18.80;99.90;;;;;;5034322;28;20493;-23
2023/07/31 11:48:33;;;;;;;1.48;0.93;;;18.80;99.90;;;;;;5033982;28;20061;-22
2023/07/31 11:51:02;;;;;;;4.20;1.55;;;18.80;99.90;;;;;;5031825;28;20062;-23
2023/07/31 11:53:47;;;;;;;3.75;1.70;;;19.20;99.90;;;;;;5033239;28;20055;-23
2023/07/31 11:56:20;;;;;;;4.38;2.10;;;19.30;99.90;;;;;;5033930;28;20049;-22
2023/07/31 11:58:48;;;;;;;2.92;1.15;;;19.40;99.90;;;;;;5033419;28;20111;-23
2023/07/31 12:01:21;;;;;;;3.78;2.10;;;19.30;99.90;;;;;;5034606;28;20075;-23
2023/07/31 12:03:47;;;;;;;5.22;1.63;;;19.30;99.90;;;;;;5033186;28;20049;-23
2023/07/31 12:06:13;;;;;;;2.22;0.77;;;19.00;99.90;;;;;;5034566;28;20045;-23
2023/07/31 12:08:39;;;;;;;2.17;0.90;;;18.70;99.90;;;;;;5034003;28;20494;-21
2023/07/31 12:11:06;;;;;;;2.25;1.10;;;18.50;99.90;;;;;;5034264;28;20118;-22
2023/07/31 12:13:33;;;;;;;1.33;1.17;;;18.80;99.90;;;;;;5033666;28;20041;-23
2023/07/31 12:16:02;;;;;;;2.83;1.60;;;18.80;99.90;;;;;;5033928;28;20180;-23
2023/07/31 12:18:30;;;;;;;1.40;1.10;;;18.90;99.90;;;;;;5032401;28;20170;-22
2023/07/31 12:21:01;;;;;;;1.67;0.90;;;18.90;99.90;;;;;;5033603;28;20049;-23
2023/07/31 12:23:29;;;;;;;2.10;1.25;;;18.70;99.90;;;;;;5034114;28;20183;-23
2023/07/31 12:26:07;;;;;;;3.92;1.60;;;18.80;99.90;;;;;;5033523;28;20048;-23
2023/07/31 12:28:41;;;;;;;4.53;1.67;;;19.00;99.90;;;;;;5033163;28;20138;-23
2023/07/31 12:31:11;;;;;;;4.05;1.10;;;19.20;99.90;;;;;;5033480;28;20111;-23
2023/07/31 12:33:38;;;;;;;1.90;1.40;;;19.20;99.90;;;;;;5032242;28;20052;-23
2023/07/31 12:36:10;;;;;;;3.03;0.90;;;19.30;99.90;;;;;;4999707;28;20059;-23
2023/07/31 12:38:36;;;;;;;2.92;0.90;;;19.50;99.90;;;;;;5034251;28;20195;-22
2023/07/31 12:41:02;;;;;;;1.83;0.77;;;19.50;99.90;;;;;;5033399;28;20503;-22
2023/07/31 12:43:27;;;;;;;1.95;0.85;;;19.50;99.90;;;;;;5032752;28;20045;-23
2023/07/31 12:45:55;;;;;;;4.97;1.35;;;19.50;99.90;;;;;;5033615;28;20475;-22